Bat Cave, NC (28710)

3:36 AM EST on February 08, 2016 (GMT -0500)
Asheville Regional | | Change Station
CLOSE
Current Station
Airport
Location: Asheville,
Elevation: 2169 ft
Nearby Weather Stations

Elev 2169 ft 35.43 °N, 82.54 °W | Updated 42 minutes ago

Mostly Cloudy
Mostly Cloudy
30 °F
Feels Like 30 °F
N
0
Wind Variable Wind from North

Today
High -- | Low -- °F
--% Chance of Precip.
Yesterday
High -- | Low -- °F
Precip. -- in
Pressure 29.85 in
Visibility 10.0 miles
Clouds Mostly Cloudy 12000 ft
Dew Point 22 °F
Humidity 72%
Rainfall 0.00 in
Snow Depth Not available.
7:24 AM 6:04 PM
Waning Crescent, 0% visible
METAR KAVL 080754Z AUTO 00000KT 10SM BKN120 M01/M06 A2984 RMK AO2 SLP108 T10111056
Pressure 29.85 in
Visibility 10.0 miles
Clouds Mostly Cloudy 12000 ft
Dew Point 22 °F
Humidity 72%
Rainfall 0.00 in
Snow Depth Not available.
7:24 AM 6:04 PM
Waning Crescent, 0% visible
METAR KAVL 080754Z AUTO 00000KT 10SM BKN120 M01/M06 A2984 RMK AO2 SLP108 T10111056

10-Day Weather Forecast

Almanac

Astronomy

Feb. 08, 2016 Rise Set
Actual Time
Civil Twilight
Nautical Twilight
Astronomical Twilight
Moon
Length of Visible Light
Length of Day
Tomorrow will be .
, % of the Moon is Illuminated

Today's Extremes

State Highs State Lows

Community

WunderPhotos

Upload Photos

1,891,412 photos uploaded!

WunderBlog® & News

Nearby

Air Quality

  Air Quality AQ Index Pollutant
Not available.

Snow Depth

Station Depth Elevation

Earthquake Activity

City Distance Mag. Time & Date
Minimum magnitude displayed is 2.5.

Coastal Water Temperatures

Place Temperature

Stations

Nearby Weather Stations

Station Location Temp. Windchill Dew Point Humidity Wind Precip. Elev Updated Type
                   

Watches & Warnings

There are currently no watches in effect.